Time;durP1;ratioP1;P1;durP2;ratioP2;P2;SDS_P1;SDS_P2;PMS_P1;PMS_P2;Temp;Humidity;BMP_temperature;BMP_pressure;BME280_temperature;BME280_humidity;BME280_pressure;Samples;Min_cycle;Max_cycle;Signal;HPM_P1;HPM_P2
2022/10/12 00:00:07;;;;;;;11.32;6.60;;;;;;;13.31;91.35;99566.53;5020453;28;20041;-56
2022/10/12 00:03:17;;;;;;;7.85;6.10;;;;;;;13.60;91.73;99566.38;5017147;28;20057;-55
2022/10/12 00:06:07;;;;;;;8.85;6.22;;;;;;;13.78;90.12;99572.19;5031984;28;20052;-56
2022/10/12 00:08:53;;;;;;;8.63;6.82;;;;;;;13.81;90.25;99575.56;5013989;28;20116;-52
2022/10/12 00:11:39;;;;;;;8.85;6.00;;;;;;;14.32;89.70;99577.25;5019250;28;20038;-52
2022/10/12 00:14:24;;;;;;;12.05;7.10;;;;;;;14.42;86.93;99574.78;5018459;28;20060;-55
2022/10/12 00:17:10;;;;;;;9.07;6.15;;;;;;;14.28;88.41;99570.53;4992559;28;20046;-56
2022/10/12 00:19:55;;;;;;;8.52;6.55;;;;;;;13.77;86.95;99569.66;4991409;28;20046;-57
2022/10/12 00:22:39;;;;;;;10.98;7.30;;;;;;;12.92;92.21;99571.72;4991782;28;20046;-57
2022/10/12 00:25:27;;;;;;;11.10;6.63;;;;;;;12.97;95.83;99574.06;4993286;28;20077;-55
2022/10/12 00:28:11;;;;;;;13.23;7.03;;;;;;;12.80;94.58;99573.38;4991533;28;20548;-55
2022/10/12 00:30:56;;;;;;;9.07;5.93;;;;;;;12.74;96.10;99577.25;4992252;28;20552;-56
2022/10/12 00:33:41;;;;;;;13.57;7.88;;;;;;;12.51;95.24;99581.34;4988817;28;20153;-54
2022/10/12 00:36:31;;;;;;;11.32;7.55;;;;;;;12.06;97.83;99570.03;4991315;28;20038;-52
2022/10/12 00:39:15;;;;;;;10.63;7.20;;;;;;;11.94;99.25;99561.16;4989936;28;20386;-57
2022/10/12 00:42:03;;;;;;;11.65;6.85;;;;;;;12.21;100.00;99562.16;4988865;28;20122;-54
2022/10/12 00:44:51;;;;;;;11.77;7.30;;;;;;;12.63;97.70;99567.41;4988785;28;20508;-54
2022/10/12 00:47:43;;;;;;;13.15;6.78;;;;;;;12.38;97.61;99562.88;4988859;28;20050;-57
2022/10/12 00:50:34;;;;;;;8.77;6.25;;;;;;;12.25;100.00;99562.81;4993466;28;20038;-56
2022/10/12 00:53:24;;;;;;;10.43;6.43;;;;;;;12.87;98.64;99560.66;4998794;28;20034;-52
2022/10/12 00:56:19;;;;;;;10.07;7.47;;;;;;;13.12;95.81;99551.16;4992120;28;20069;-56
2022/10/12 00:59:09;;;;;;;10.52;6.53;;;;;;;13.32;94.13;99552.44;4988803;28;20065;-56
2022/10/12 01:01:55;;;;;;;10.98;6.40;;;;;;;13.83;90.67;99553.41;4991151;28;20077;-57
2022/10/12 01:04:40;;;;;;;7.43;5.95;;;;;;;13.66;92.57;99549.34;4992059;28;20124;-52
2022/10/12 01:07:25;;;;;;;11.63;6.18;;;;;;;13.16;91.78;99552.63;4990177;28;20039;-52
2022/10/12 01:10:09;;;;;;;7.95;5.97;;;;;;;13.07;91.33;99548.84;4989742;28;20039;-52
2022/10/12 01:12:54;;;;;;;9.40;6.75;;;;;;;13.06;93.99;99557.66;4990498;28;20062;-56
2022/10/12 01:15:48;;;;;;;8.57;6.05;;;;;;;12.91;97.01;99563.00;4991290;28;20041;-56
2022/10/12 01:18:44;;;;;;;10.93;6.72;;;;;;;13.54;92.53;99556.28;4994774;28;20129;-57
2022/10/12 01:21:33;;;;;;;12.00;6.32;;;;;;;13.48;93.01;99554.03;4992109;28;20117;-55
2022/10/12 01:24:40;;;;;;;10.18;7.00;;;;;;;13.26;92.83;99555.47;4991451;28;20046;-51
2022/10/12 01:27:47;;;;;;;10.05;6.50;;;;;;;13.32;93.79;99549.81;4999508;28;20042;-56
2022/10/12 01:30:37;;;;;;;14.15;8.18;;;;;;;12.73;93.63;99551.06;4994134;28;20034;-54
2022/10/12 01:33:34;;;;;;;11.82;7.63;;;;;;;12.71;95.09;99545.91;4993289;28;20046;-55
2022/10/12 01:36:27;;;;;;;10.50;7.57;;;;;;;13.18;94.88;99546.34;4995960;28;20378;-56
2022/10/12 01:39:21;;;;;;;7.75;5.80;;;;;;;13.47;93.34;99549.69;4992181;28;20044;-55
2022/10/12 01:42:14;;;;;;;10.23;6.93;;;;;;;13.34;92.72;99549.69;4991174;28;20084;-55
2022/10/12 01:45:11;;;;;;;8.13;6.47;;;;;;;13.38;93.90;99552.00;4992666;28;20050;-55
2022/10/12 01:47:56;;;;;;;12.02;7.60;;;;;;;13.41;91.16;99554.47;4991464;28;20038;-55
2022/10/12 01:50:49;;;;;;;11.35;7.70;;;;;;;12.83;94.99;99548.69;4991975;28;20058;-53
2022/10/12 01:53:41;;;;;;;10.98;7.32;;;;;;;13.27;95.55;99551.91;5001806;28;20049;-53
2022/10/12 01:56:34;;;;;;;15.40;8.75;;;;;;;13.82;89.77;99554.38;4997173;28;20130;-56
2022/10/12 01:59:56;;;;;;;17.63;9.55;;;;;;;12.85;93.90;99550.25;4993418;28;20245;-54
2022/10/12 02:03:19;;;;;;;13.98;8.55;;;;;;;13.85;93.47;99548.88;4999631;28;20058;-56
2022/10/12 02:06:12;;;;;;;14.63;7.88;;;;;;;13.47;90.93;99547.94;4979535;28;20178;-55
2022/10/12 02:09:17;;;;;;;12.15;7.05;;;;;;;13.17;93.07;99547.25;4979171;28;20202;-54
2022/10/12 02:12:19;;;;;;;8.82;7.13;;;;;;;13.29;93.30;99550.00;4988712;28;20048;-54
2022/10/12 02:15:08;;;;;;;9.95;6.95;;;;;;;13.41;93.27;99551.84;4974471;28;20096;-52
2022/10/12 02:17:53;;;;;;;12.95;6.88;;;;;;;13.26;92.23;99558.13;4974521;28;20130;-55
2022/10/12 02:20:40;;;;;;;14.50;7.82;;;;;;;13.16;90.88;99555.25;4977896;28;20058;-53
2022/10/12 02:23:27;;;;;;;11.85;7.90;;;;;;;12.09;94.22;99555.06;4981991;28;20049;-54
2022/10/12 02:26:12;;;;;;;11.77;7.13;;;;;;;12.07;96.89;99560.38;4979444;28;20077;-51
2022/10/12 02:29:00;;;;;;;11.88;8.23;;;;;;;12.08;98.63;99562.09;4982544;28;20423;-53
2022/10/12 02:32:06;;;;;;;15.27;8.05;;;;;;;11.44;100.00;99563.28;4976372;28;20050;-52
2022/10/12 02:35:02;;;;;;;13.52;8.02;;;;;;;11.46;100.00;99557.00;4959703;28;20039;-54
2022/10/12 02:37:52;;;;;;;10.75;7.38;;;;;;;11.25;100.00;99561.72;4991418;28;20054;-54
2022/10/12 02:40:44;;;;;;;8.88;6.15;;;;;;;12.41;100.00;99557.44;4991487;28;20073;-55
2022/10/12 02:43:40;;;;;;;9.35;6.15;;;;;;;13.27;96.99;99555.38;4991137;28;20074;-52
2022/10/12 02:46:27;;;;;;;11.07;6.43;;;;;;;13.72;94.49;99563.84;4989856;28;20184;-51
2022/10/12 02:49:13;;;;;;;10.05;6.32;;;;;;;13.65;90.56;99555.53;4992695;28;20117;-57
2022/10/12 02:51:58;;;;;;;11.95;7.47;;;;;;;13.33;91.68;99562.03;4994661;28;20038;-55
2022/10/12 02:54:43;;;;;;;9.43;6.68;;;;;;;13.57;90.89;99561.31;4990352;28;20030;-55
2022/10/12 02:57:27;;;;;;;11.02;6.47;;;;;;;13.53;92.10;99559.88;4996558;28;20058;-55
2022/10/12 03:00:12;;;;;;;10.70;6.13;;;;;;;13.16;91.98;99557.88;4992432;28;20038;-55
2022/10/12 03:02:57;;;;;;;8.70;6.22;;;;;;;13.13;92.25;99550.19;4992448;28;20046;-55
2022/10/12 03:05:44;;;;;;;11.05;6.45;;;;;;;13.03;92.07;99552.59;4994720;28;20042;-53
2022/10/12 03:08:29;;;;;;;9.32;6.13;;;;;;;13.06;91.82;99560.28;5008124;28;20054;-53
2022/10/12 03:11:14;;;;;;;10.70;6.53;;;;;;;12.99;93.27;99551.97;4995618;28;20112;-56
2022/10/12 03:13:58;;;;;;;11.45;6.97;;;;;;;13.15;92.10;99557.03;4997846;28;20078;-57
2022/10/12 03:16:45;;;;;;;9.00;6.75;;;;;;;12.35;94.69;99555.22;4998898;28;20042;-50
2022/10/12 03:19:30;;;;;;;8.82;6.20;;;;;;;13.03;97.44;99556.09;5007537;28;20156;-54
2022/10/12 03:22:14;;;;;;;9.07;6.30;;;;;;;12.24;93.50;99551.47;4993343;28;20050;-50
2022/10/12 03:24:59;;;;;;;9.43;6.35;;;;;;;12.12;97.41;99547.84;4991965;28;20108;-53
2022/10/12 03:27:44;;;;;;;7.68;5.72;;;;;;;12.86;99.64;99546.66;5003200;28;20046;-54
2022/10/12 03:30:29;;;;;;;10.75;6.15;;;;;;;13.33;93.25;99553.28;4998995;28;20042;-52
2022/10/12 03:33:13;;;;;;;9.90;5.90;;;;;;;13.13;92.36;99555.47;4992906;28;20501;-51
2022/10/12 03:35:58;;;;;;;8.23;5.88;;;;;;;12.93;95.77;99549.72;4996916;28;20046;-53
2022/10/12 03:38:43;;;;;;;7.13;5.45;;;;;;;12.97;95.97;99542.50;4997635;28;20398;-50
2022/10/12 03:41:28;;;;;;;9.45;6.63;;;;;;;12.34;92.11;99548.28;4994211;28;20050;-55
2022/10/12 03:44:12;;;;;;;9.82;6.00;;;;;;;13.12;95.39;99538.81;4992490;28;20432;-53
2022/10/12 03:46:57;;;;;;;10.25;5.78;;;;;;;12.97;95.17;99531.97;4991448;28;20113;-55
2022/10/12 03:49:42;;;;;;;10.25;6.72;;;;;;;12.71;94.72;99531.91;4993707;28;20038;-52
2022/10/12 03:52:26;;;;;;;11.68;7.20;;;;;;;12.99;94.99;99519.56;4997395;28;20048;-57
2022/10/12 03:55:12;;;;;;;12.85;7.30;;;;;;;13.37;92.13;99526.66;4995514;28;20049;-55
2022/10/12 03:57:56;;;;;;;13.48;6.38;;;;;;;13.09;91.40;99532.94;4992691;28;20533;-52
2022/10/12 04:00:41;;;;;;;9.85;6.13;;;;;;;12.92;93.52;99527.03;4994257;28;20042;-54
2022/10/12 04:03:27;;;;;;;8.35;5.70;;;;;;;12.85;95.41;99537.09;4989756;28;20116;-52
2022/10/12 04:06:13;;;;;;;10.35;6.00;;;;;;;13.17;93.39;99534.09;4975237;28;20038;-52
2022/10/12 04:08:58;;;;;;;10.73;6.97;;;;;;;13.02;93.64;99540.41;5007837;28;20038;-51
2022/10/12 04:11:42;;;;;;;10.25;5.57;;;;;;;13.30;97.72;99538.56;5006590;28;20042;-54
2022/10/12 04:14:27;;;;;;;8.75;5.13;;;;;;;13.51;99.37;99543.31;4993857;28;20042;-51
2022/10/12 04:17:14;;;;;;;10.70;6.28;;;;;;;13.58;98.78;99549.84;4998066;28;20048;-51
2022/10/12 04:20:04;;;;;;;9.77;5.57;;;;;;;13.32;96.92;99554.25;4977897;28;20065;-52
2022/10/12 04:22:49;;;;;;;11.93;7.15;;;;;;;13.20;98.68;99558.53;4989480;28;20061;-52
2022/10/12 04:25:34;;;;;;;10.65;5.40;;;;;;;13.46;100.00;99553.28;4989811;28;20076;-54
2022/10/12 04:28:18;;;;;;;7.70;5.07;;;;;;;14.53;96.56;99556.41;4988833;28;20112;-51
2022/10/12 04:31:03;;;;;;;11.55;5.70;;;;;;;15.15;91.91;99547.56;4993707;28;20083;-51
2022/10/12 04:33:55;;;;;;;13.30;6.07;;;;;;;15.09;92.18;99548.03;4992366;28;20042;-51
2022/10/12 04:36:41;;;;;;;11.43;5.90;;;;;;;14.86;91.31;99553.22;4997661;28;20041;-53
2022/10/12 04:39:26;;;;;;;10.85;5.50;;;;;;;14.51;87.45;99563.56;4989830;28;20041;-52
2022/10/12 04:42:10;;;;;;;10.20;5.85;;;;;;;13.91;93.55;99559.00;5001491;28;20054;-55
2022/10/12 04:44:55;;;;;;;14.20;5.65;;;;;;;13.78;91.82;99551.09;4991758;28;20046;-55
2022/10/12 04:47:40;;;;;;;12.10;5.30;;;;;;;14.50;97.69;99550.50;4989522;28;20141;-52
2022/10/12 04:50:24;;;;;;;14.65;6.22;;;;;;;14.90;87.92;99555.50;4993362;28;20141;-53
2022/10/12 04:53:09;;;;;;;12.68;4.90;;;;;;;14.86;91.37;99559.34;4997743;28;20335;-54
2022/10/12 04:55:53;;;;;;;9.60;5.10;;;;;;;14.86;93.32;99559.34;4995574;28;20038;-55
2022/10/12 04:58:38;;;;;;;13.02;5.43;;;;;;;15.18;90.81;99565.78;4997293;28;20092;-55
2022/10/12 05:01:23;;;;;;;14.02;5.20;;;;;;;15.17;90.97;99568.56;4992042;28;20038;-54
2022/10/12 05:04:07;;;;;;;8.75;5.32;;;;;;;15.05;86.40;99565.88;5000060;28;20045;-52
2022/10/12 05:06:53;;;;;;;9.20;5.35;;;;;;;13.63;85.97;99565.31;5016844;28;20044;-53
2022/10/12 05:09:42;;;;;;;8.52;5.40;;;;;;;13.96;92.03;99579.75;4996736;28;20081;-57
2022/10/12 05:12:27;;;;;;;7.35;5.07;;;;;;;12.75;85.87;99576.28;5004583;28;20038;-55
2022/10/12 05:15:13;;;;;;;14.57;6.80;;;;;;;12.16;87.77;99580.84;5006136;28;20121;-53
2022/10/12 05:17:57;;;;;;;9.25;5.05;;;;;;;12.38;95.17;99576.88;5001528;28;20425;-54
2022/10/12 05:20:42;;;;;;;7.20;5.15;;;;;;;13.65;95.49;99572.19;4994707;28;20134;-54
2022/10/12 05:23:27;;;;;;;9.65;4.97;;;;;;;13.83;93.52;99573.63;4982386;28;20101;-54
2022/10/12 05:26:12;;;;;;;11.65;4.95;;;;;;;14.16;92.71;99570.44;4996390;28;20133;-51
2022/10/12 05:28:57;;;;;;;11.32;5.13;;;;;;;15.01;91.64;99572.34;5005870;28;20062;-49
2022/10/12 05:31:43;;;;;;;8.63;4.95;;;;;;;15.38;85.31;99574.00;4994703;28;20074;-51
2022/10/12 05:34:27;;;;;;;6.80;4.68;;;;;;;14.18;83.57;99580.88;4981606;28;20389;-48
2022/10/12 05:37:12;;;;;;;9.52;5.35;;;;;;;14.63;89.37;99577.66;4993121;28;20058;-52
2022/10/12 05:39:57;;;;;;;9.90;5.18;;;;;;;14.86;84.16;99579.59;4996825;28;20069;-50
2022/10/12 05:42:43;;;;;;;13.00;8.10;;;;;;;13.62;80.78;99574.19;4988474;28;20108;-50
2022/10/12 05:45:27;;;;;;;9.63;6.03;;;;;;;13.69;84.08;99577.22;4994988;28;20085;-49
2022/10/12 05:48:13;;;;;;;9.90;5.15;;;;;;;14.13;87.52;99581.16;4993682;28;20458;-51
2022/10/12 05:50:59;;;;;;;10.20;5.88;;;;;;;12.77;83.54;99577.03;4995766;28;20038;-51
2022/10/12 05:53:44;;;;;;;8.35;5.70;;;;;;;11.32;90.74;99584.06;4990357;28;20109;-51
2022/10/12 05:56:29;;;;;;;10.98;6.00;;;;;;;11.85;89.75;99582.69;4994396;28;20042;-50
2022/10/12 05:59:14;;;;;;;11.07;6.15;;;;;;;11.32;93.24;99591.94;4992385;28;20041;-52
2022/10/12 06:01:58;;;;;;;8.90;5.70;;;;;;;12.09;91.25;99579.56;4977050;28;20048;-49
2022/10/12 06:04:43;;;;;;;10.95;6.88;;;;;;;11.75;94.11;99587.66;4991965;28;20038;-51
2022/10/12 06:07:28;;;;;;;12.82;6.53;;;;;;;11.78;91.03;99589.28;4993389;28;20042;-50
2022/10/12 06:10:13;;;;;;;12.15;4.97;;;;;;;11.42;100.00;99592.22;4996342;28;20125;-57
2022/10/12 06:12:57;;;;;;;8.80;6.50;;;;;;;11.68;93.40;99591.59;4994977;28;20045;-55
2022/10/12 06:15:46;;;;;;;19.42;8.57;;;;;;;10.98;96.79;99600.88;4993150;28;20097;-55
2022/10/12 06:18:30;;;;;;;11.07;7.28;;;;;;;10.83;96.77;99606.06;4993614;28;20501;-53
2022/10/12 06:21:15;;;;;;;8.85;5.32;;;;;;;12.80;100.00;99597.03;4985457;28;20062;-53
2022/10/12 06:24:00;;;;;;;8.98;5.47;;;;;;;14.84;88.41;99607.88;4996644;28;20050;-54
2022/10/12 06:26:44;;;;;;;10.48;6.22;;;;;;;14.65;76.95;99599.50;4991804;28;20148;-54
2022/10/12 06:29:29;;;;;;;12.85;7.53;;;;;;;12.65;89.75;99602.34;5006167;28;20045;-52
2022/10/12 06:32:14;;;;;;;14.30;8.88;;;;;;;12.11;89.74;99608.34;4992092;28;20050;-53
2022/10/12 06:34:58;;;;;;;15.68;9.30;;;;;;;11.38;94.35;99605.59;4995868;28;20050;-49
2022/10/12 06:37:50;;;;;;;13.98;8.57;;;;;;;11.32;95.61;99617.31;4993859;28;20105;-54
2022/10/12 06:40:35;;;;;;;10.80;7.22;;;;;;;12.18;95.41;99628.88;4995972;28;20041;-52
2022/10/12 06:43:21;;;;;;;9.55;5.50;;;;;;;12.85;91.27;99621.25;4998848;28;20042;-51
2022/10/12 06:46:06;;;;;;;8.93;5.32;;;;;;;13.24;89.69;99620.50;4995422;28;20054;-51
2022/10/12 06:48:50;;;;;;;8.48;5.90;;;;;;;12.90;89.39;99623.56;4991459;28;20150;-50
2022/10/12 06:51:35;;;;;;;9.95;6.22;;;;;;;12.78;88.02;99623.41;4994119;28;20532;-54
2022/10/12 06:54:19;;;;;;;10.35;6.15;;;;;;;12.84;90.62;99624.81;4991079;28;20141;-54
2022/10/12 06:57:04;;;;;;;9.57;6.55;;;;;;;13.40;88.22;99622.97;4962115;28;20062;-50
2022/10/12 06:59:49;;;;;;;9.68;6.93;;;;;;;13.05;85.97;99622.59;4993073;28;20125;-54
2022/10/12 07:02:34;;;;;;;9.85;5.97;;;;;;;13.16;86.40;99631.53;4994987;28;20088;-51
2022/10/12 07:05:19;;;;;;;10.77;6.45;;;;;;;13.20;86.06;99626.94;5008360;28;20046;-50
2022/10/12 07:08:04;;;;;;;12.20;6.30;;;;;;;13.29;86.04;99627.16;4992730;28;20070;-50
2022/10/12 07:10:49;;;;;;;10.63;6.50;;;;;;;13.41;84.86;99625.53;4992849;28;20501;-54
2022/10/12 07:13:34;;;;;;;11.02;6.25;;;;;;;13.51;85.01;99624.94;4993629;28;20116;-53
2022/10/12 07:16:18;;;;;;;11.45;6.65;;;;;;;13.79;83.13;99623.06;4994096;28;20129;-57
2022/10/12 07:19:04;;;;;;;9.48;5.85;;;;;;;14.01;81.56;99626.81;4992711;28;20034;-51
2022/10/12 07:21:48;;;;;;;8.93;5.63;;;;;;;13.15;82.89;99641.22;4993297;28;20042;-53
2022/10/12 07:24:35;;;;;;;10.80;6.28;;;;;;;12.69;85.20;99634.53;4994447;28;20623;-54
2022/10/12 07:27:20;;;;;;;9.80;5.88;;;;;;;12.79;86.03;99638.28;4995886;28;20066;-53
2022/10/12 07:30:05;;;;;;;9.45;5.72;;;;;;;12.88;85.39;99633.34;4994604;28;20103;-53
2022/10/12 07:32:53;;;;;;;9.07;5.10;;;;;;;13.26;83.73;99637.91;4988745;28;20512;-49
2022/10/12 07:35:41;;;;;;;7.97;5.22;;;;;;;13.87;81.34;99635.69;4997708;28;20479;-56
2022/10/12 07:38:25;;;;;;;14.13;6.15;;;;;;;14.56;77.74;99639.69;4992223;28;20542;-53
2022/10/12 07:41:10;;;;;;;11.88;5.65;;;;;;;15.19;74.64;99643.19;4998782;28;20099;-51
2022/10/12 07:43:57;;;;;;;14.57;6.35;;;;;;;15.97;71.07;99640.84;4975612;28;20058;-50
2022/10/12 07:46:42;;;;;;;11.70;5.53;;;;;;;16.20;70.44;99630.31;4994263;28;20030;-49
2022/10/12 07:49:26;;;;;;;9.93;5.05;;;;;;;15.83;70.94;99635.81;4993133;28;20053;-51
2022/10/12 07:52:15;;;;;;;11.68;5.10;;;;;;;15.50;71.95;99630.31;4997299;28;20390;-50
2022/10/12 07:54:59;;;;;;;10.88;5.43;;;;;;;15.50;71.72;99625.88;4993883;28;20042;-56
2022/10/12 07:57:44;;;;;;;13.27;4.88;;;;;;;15.66;72.18;99631.78;4991424;28;20118;-56
2022/10/12 08:00:30;;;;;;;9.98;5.75;;;;;;;15.74;71.11;99626.78;4988547;28;20113;-53
2022/10/12 08:03:15;;;;;;;12.57;5.22;;;;;;;15.38;70.95;99630.28;4988045;28;20065;-50
2022/10/12 08:06:08;;;;;;;10.60;5.47;;;;;;;15.62;71.16;99631.19;4988518;28;20073;-54
2022/10/12 08:08:55;;;;;;;9.15;5.45;;;;;;;15.30;71.73;99635.31;4992506;28;20085;-53
2022/10/12 08:11:42;;;;;;;7.32;4.68;;;;;;;14.49;73.78;99635.81;4989699;28;20088;-55
2022/10/12 08:14:27;;;;;;;10.00;5.40;;;;;;;14.44;75.10;99640.59;5000302;28;20061;-54
2022/10/12 08:17:12;;;;;;;12.07;6.15;;;;;;;14.09;75.50;99634.19;4988528;28;20151;-52
2022/10/12 08:19:57;;;;;;;9.82;6.00;;;;;;;13.97;76.82;99633.28;5004053;28;20128;-59
2022/10/12 08:22:42;;;;;;;10.80;5.10;;;;;;;14.03;76.81;99630.22;4994005;28;20085;-57
2022/10/12 08:25:26;;;;;;;12.40;5.65;;;;;;;14.35;75.98;99632.38;5003394;28;20497;-54
2022/10/12 08:28:11;;;;;;;8.07;5.28;;;;;;;14.93;73.44;99633.59;4987814;28;20129;-50
2022/10/12 08:30:55;;;;;;;10.07;5.43;;;;;;;15.33;72.19;99628.94;5003478;28;20061;-53
2022/10/12 08:33:40;;;;;;;9.20;5.47;;;;;;;15.54;70.99;99626.50;5004143;28;20072;-50
2022/10/12 08:36:25;;;;;;;11.10;5.05;;;;;;;15.39;71.71;99626.69;5003875;28;20161;-55
2022/10/12 08:39:09;;;;;;;10.30;5.13;;;;;;;15.39;70.96;99626.69;5000311;28;20038;-51
2022/10/12 08:42:09;;;;;;;8.65;5.10;;;;;;;15.37;71.24;99627.78;5002802;28;20054;-50
2022/10/12 08:45:06;;;;;;;11.40;5.50;;;;;;;15.50;70.79;99627.69;4988027;28;20085;-50
2022/10/12 08:48:00;;;;;;;9.93;5.18;;;;;;;15.37;71.25;99623.31;5004291;28;20057;-52
2022/10/12 08:50:49;;;;;;;7.22;5.30;;;;;;;14.96;72.11;99637.81;4982592;28;20054;-57
2022/10/12 08:53:53;;;;;;;8.68;5.65;;;;;;;14.29;75.37;99643.34;4987190;28;20085;-49
2022/10/12 08:56:40;;;;;;;8.40;4.93;;;;;;;14.07;76.99;99642.19;4987497;28;20552;-55
2022/10/12 08:59:26;;;;;;;10.10;5.32;;;;;;;14.18;77.01;99643.25;5002801;28;20061;-54
2022/10/12 09:02:41;;;;;;;10.13;5.85;;;;;;;14.35;75.60;99655.25;4984859;28;20089;-56
2022/10/12 09:05:35;;;;;;;9.68;5.53;;;;;;;14.29;76.20;99646.00;4986961;28;20102;-54
2022/10/12 09:08:32;;;;;;;10.75;5.28;;;;;;;14.21;76.78;99640.41;4994837;28;20053;-52
2022/10/12 09:11:33;;;;;;;12.32;5.95;;;;;;;14.19;77.42;99640.50;4993283;28;20541;-55
2022/10/12 09:14:29;;;;;;;9.35;5.85;;;;;;;14.31;76.45;99630.91;4990555;28;20061;-54
2022/10/12 09:17:37;;;;;;;13.30;5.15;;;;;;;14.41;75.69;99636.38;4978949;28;20118;-53
2022/10/12 09:20:39;;;;;;;13.32;5.63;;;;;;;14.20;76.82;99636.91;4989304;28;20200;-56
2022/10/12 09:23:26;;;;;;;11.63;5.93;;;;;;;14.29;76.83;99636.28;4994369;28;20038;-54
2022/10/12 09:26:15;;;;;;;8.35;5.10;;;;;;;14.74;75.46;99636.69;4983961;28;20046;-55
2022/10/12 09:29:02;;;;;;;9.45;5.30;;;;;;;14.83;75.18;99632.56;4990574;28;20118;-54
2022/10/12 09:32:01;;;;;;;10.57;5.85;;;;;;;14.51;77.50;99633.91;4995432;28;20478;-54
2022/10/12 09:34:47;;;;;;;10.60;4.72;;;;;;;14.52;77.99;99632.97;4986215;28;20099;-54
2022/10/12 09:37:34;;;;;;;12.77;5.75;;;;;;;14.65;77.64;99633.78;4987077;28;20125;-52
2022/10/12 09:40:32;;;;;;;11.00;5.80;;;;;;;14.78;76.94;99639.00;4991339;28;20035;-51
2022/10/12 09:43:17;;;;;;;9.35;6.03;;;;;;;14.40;79.03;99640.81;4990917;28;20054;-59
2022/10/12 09:46:05;;;;;;;12.73;5.93;;;;;;;13.76;82.07;99641.69;4993458;28;20046;-50
2022/10/12 09:48:58;;;;;;;11.30;5.57;;;;;;;13.67;83.68;99637.91;4990965;28;20375;-50
2022/10/12 09:51:44;;;;;;;8.98;5.40;;;;;;;14.21;80.95;99637.78;4995185;28;20042;-56
2022/10/12 09:54:28;;;;;;;10.07;5.47;;;;;;;14.49;79.68;99635.81;4993933;28;20038;-53
2022/10/12 09:57:22;;;;;;;12.40;6.18;;;;;;;14.43;79.38;99638.91;5008114;28;20054;-55
2022/10/12 10:00:26;;;;;;;11.13;5.90;;;;;;;14.41;79.76;99634.56;4997772;28;20077;-52
2022/10/12 10:03:23;;;;;;;10.43;5.30;;;;;;;14.66;78.95;99643.38;4989461;28;20066;-53
2022/10/12 10:06:07;;;;;;;11.02;5.20;;;;;;;15.10;76.98;99636.78;4993156;28;20141;-58
2022/10/12 10:08:53;;;;;;;11.48;5.03;;;;;;;15.45;74.82;99643.88;4994593;28;20105;-53
2022/10/12 10:11:39;;;;;;;8.27;5.10;;;;;;;15.79;74.20;99637.81;5007101;28;20055;-58
2022/10/12 10:14:24;;;;;;;7.35;5.05;;;;;;;16.45;71.81;99638.13;4991673;28;20042;-53
2022/10/12 10:17:14;;;;;;;7.75;5.03;;;;;;;16.89;70.04;99632.84;4994998;28;20077;-55
2022/10/12 10:20:02;;;;;;;12.70;5.53;;;;;;;16.65;70.48;99633.84;4995844;28;20035;-57
2022/10/12 10:22:48;;;;;;;9.05;5.30;;;;;;;16.96;69.65;99636.66;4992341;28;20041;-55
2022/10/12 10:25:33;;;;;;;12.13;5.25;;;;;;;16.83;68.68;99630.69;4995496;28;20045;-55
2022/10/12 10:28:26;;;;;;;9.45;5.35;;;;;;;16.62;69.82;99628.81;5007364;28;20378;-52
2022/10/12 10:31:20;;;;;;;9.07;4.93;;;;;;;16.87;69.77;99630.31;4988388;28;20061;-54
2022/10/12 10:34:17;;;;;;;8.32;5.00;;;;;;;17.24;66.99;99629.13;4990859;28;20081;-53
2022/10/12 10:37:04;;;;;;;8.82;4.90;;;;;;;17.15;66.40;99637.00;4992791;28;20039;-56
2022/10/12 10:39:53;;;;;;;10.45;5.32;;;;;;;17.05;66.30;99631.59;4994807;28;20066;-55
2022/10/12 10:42:39;;;;;;;13.27;5.68;;;;;;;16.92;65.73;99637.91;4992279;28;20034;-52
2022/10/12 10:45:53;;;;;;;7.40;4.93;;;;;;;16.69;66.21;99630.03;4990015;28;20133;-56
2022/10/12 10:48:55;;;;;;;8.25;5.18;;;;;;;15.81;69.86;99633.28;4988296;28;20064;-54
2022/10/12 10:51:48;;;;;;;9.18;4.95;;;;;;;15.51;71.93;99634.66;4991728;28;20061;-56
2022/10/12 10:54:37;;;;;;;12.77;4.88;;;;;;;15.55;72.53;99632.63;4990249;28;20050;-54
2022/10/12 10:57:23;;;;;;;7.88;5.18;;;;;;;16.04;70.98;99621.91;4978451;28;20042;-52
2022/10/12 11:00:15;;;;;;;10.85;5.80;;;;;;;16.68;67.87;99624.84;4977524;28;20050;-54
2022/10/12 11:03:27;;;;;;;7.65;4.78;;;;;;;16.49;68.46;99621.88;4990485;28;20041;-51
2022/10/12 11:06:43;;;;;;;8.55;4.70;;;;;;;17.24;66.49;99623.00;4995169;28;20055;-51
2022/10/12 11:09:39;;;;;;;10.45;5.30;;;;;;;17.57;65.17;99615.00;4988820;28;20137;-52
2022/10/12 11:12:40;;;;;;;11.48;5.70;;;;;;;18.11;62.53;99614.84;4982507;28;20053;-54
2022/10/12 11:16:00;;;;;;;11.68;5.30;;;;;;;18.27;62.23;99614.38;4989658;28;20092;-56
2022/10/12 11:18:57;;;;;;;9.52;5.38;;;;;;;18.87;60.52;99614.50;4936270;29;20043;-50
2022/10/12 11:22:04;;;;;;;12.00;4.93;;;;;;;19.94;57.56;99614.50;4932819;29;20407;-57
2022/10/12 11:24:58;;;;;;;9.50;5.10;;;;;;;19.60;57.23;99615.03;4937125;29;20054;-54
2022/10/12 11:27:43;;;;;;;11.85;5.93;;;;;;;19.68;57.80;99604.50;4935675;29;20070;-53
2022/10/12 11:30:38;;;;;;;8.55;4.97;;;;;;;20.02;56.46;99605.78;4934083;29;20043;-51
2022/10/12 11:33:27;;;;;;;8.48;4.68;;;;;;;19.44;58.44;99606.66;4932756;29;20051;-51
2022/10/12 11:36:18;;;;;;;9.63;4.63;;;;;;;19.66;56.83;99604.66;4935402;29;22387;-51
2022/10/12 11:39:07;;;;;;;13.00;5.07;;;;;;;19.75;56.49;99610.91;4934910;28;20534;-50
2022/10/12 11:41:54;;;;;;;9.57;4.80;;;;;;;20.20;54.99;99600.56;4932242;29;20451;-50
2022/10/12 11:44:44;;;;;;;9.55;4.63;;;;;;;20.73;53.71;99599.97;4935110;29;20039;-53
2022/10/12 11:47:28;;;;;;;8.88;4.50;;;;;;;20.37;54.82;99595.44;4933902;29;20046;-51
2022/10/12 11:50:28;;;;;;;7.20;3.90;;;;;;;20.64;55.96;99596.38;4931877;29;20062;-52
2022/10/12 11:53:19;;;;;;;7.78;4.95;;;;;;;21.26;50.78;99587.66;4986589;28;20050;-53
2022/10/12 11:56:50;;;;;;;10.57;4.55;;;;;;;20.80;52.27;99583.25;4985782;28;20054;-52
2022/10/12 11:59:43;;;;;;;13.97;5.23;;;;;;;20.09;53.46;99571.50;4942750;29;20084;-53
2022/10/12 12:02:42;;;;;;;10.38;6.25;;;;;;;19.49;55.00;99579.66;4937269;29;20365;-52
2022/10/12 12:05:30;;;;;;;10.35;5.40;;;;;;;18.80;57.88;99575.22;4925008;29;20060;-50
2022/10/12 12:08:41;;;;;;;6.93;5.03;;;;;;;19.74;55.53;99577.34;4940948;28;22528;-52
2022/10/12 12:11:32;;;;;;;12.40;5.53;;;;;;;19.79;54.94;99568.94;4910238;29;20056;-53
2022/10/12 12:14:25;;;;;;;7.88;4.57;;;;;;;19.37;58.83;99568.38;4909706;29;20127;-48
2022/10/12 12:17:15;;;;;;;13.52;5.63;;;;;;;19.56;56.46;99572.81;4894009;29;20060;-52
2022/10/12 12:20:20;;;;;;;8.63;5.70;;;;;;;19.37;56.68;99575.50;4909148;29;20131;-51
2022/10/12 12:23:17;;;;;;;12.27;7.78;;;;;;;19.54;55.73;99568.59;4924247;29;20484;-51
2022/10/12 12:26:09;;;;;;;10.25;5.97;;;;;;;19.32;57.58;99568.78;4909229;29;20076;-52
2022/10/12 12:29:24;;;;;;;10.90;6.22;;;;;;;19.79;54.77;99567.13;4912628;29;20130;-52
2022/10/12 12:32:09;;;;;;;8.68;5.85;;;;;;;19.99;55.55;99572.38;4925856;29;20094;-50
2022/10/12 12:34:56;;;;;;;8.13;5.47;;;;;;;19.81;54.52;99569.63;4936847;29;20058;-50
2022/10/12 12:37:41;;;;;;;11.30;6.57;;;;;;;19.20;56.79;99577.88;4919340;29;20074;-53
2022/10/12 12:40:26;;;;;;;8.48;5.10;;;;;;;19.14;58.03;99575.81;4932810;29;20089;-53
2022/10/12 12:43:36;;;;;;;11.50;6.53;;;;;;;19.14;56.76;99568.69;4935437;29;20039;-54
2022/10/12 12:47:01;;;;;;;10.98;5.85;;;;;;;18.77;59.31;99577.34;4897951;29;20372;-50
2022/10/12 12:50:29;;;;;;;14.25;6.95;;;;;;;18.22;59.91;99569.69;4940998;28;20098;-50
2022/10/12 12:53:19;;;;;;;10.10;6.18;;;;;;;18.40;61.61;99568.19;4909356;29;20048;-53
2022/10/12 12:56:13;;;;;;;11.57;6.90;;;;;;;18.43;60.98;99565.25;4896193;29;20044;-54
2022/10/12 12:59:17;;;;;;;13.57;7.57;;;;;;;17.65;62.08;99561.34;4894923;29;20140;-53
2022/10/12 13:02:22;;;;;;;13.40;6.28;;;;;;;17.90;62.17;99560.09;4907868;29;20064;-54
2022/10/12 13:05:44;;;;;;;14.10;7.95;;;;;;;17.89;61.66;99558.38;4896538;29;20108;-51
2022/10/12 13:08:44;;;;;;;12.50;6.97;;;;;;;17.67;62.11;99559.41;4895938;29;20072;-51
2022/10/12 13:11:51;;;;;;;13.80;7.10;;;;;;;17.55;64.54;99554.19;4909014;29;20144;-53
2022/10/12 13:14:44;;;;;;;9.15;6.28;;;;;;;18.14;60.54;99558.94;4912251;29;20052;-51